Time;durP1;ratioP1;P1;durP2;ratioP2;P2;SDS_P1;SDS_P2;PMS_P1;PMS_P2;Temp;Humidity;BMP_temperature;BMP_pressure;BME280_temperature;BME280_humidity;BME280_pressure;Samples;Min_cycle;Max_cycle;Signal;HPM_P1;HPM_P2
2023/01/25 00:09:03;;;;;;;23.27;10.18;;;2.40;99.90;;;;;;20900475;28;20037;-77
2023/01/25 00:19:05;;;;;;;29.80;11.07;;;2.50;99.90;;;;;;20913349;28;20043;-77
2023/01/25 00:29:06;;;;;;;28.48;10.98;;;2.50;99.90;;;;;;20908080;28;20488;-77
2023/01/25 00:39:10;;;;;;;25.73;9.80;;;2.50;99.90;;;;;;20914830;28;20033;-76
2023/01/25 00:49:25;;;;;;;26.80;10.45;;;2.50;99.90;;;;;;20899327;28;20037;-76
2023/01/25 00:59:26;;;;;;;28.08;11.48;;;2.30;99.90;;;;;;20911434;28;20467;-76
2023/01/25 01:09:28;;;;;;;26.00;10.85;;;2.20;99.90;;;;;;20894269;28;20090;-76
2023/01/25 01:19:29;;;;;;;31.63;11.63;;;2.20;99.90;;;;;;20911496;28;20109;-76
2023/01/25 01:29:30;;;;;;;29.52;12.48;;;2.10;99.90;;;;;;20893175;28;20041;-76
2023/01/25 01:39:31;;;;;;;31.88;12.38;;;2.10;99.90;;;;;;20910280;28;20032;-77
2023/01/25 01:49:32;;;;;;;38.83;13.13;;;2.10;99.90;;;;;;20910020;28;20033;-76
2023/01/25 02:00:07;;;;;;;34.28;13.30;;;2.10;99.90;;;;;;20891573;28;20392;-76
2023/01/25 02:10:17;;;;;;;34.25;12.65;;;2.10;99.90;;;;;;20907240;28;20037;-77
2023/01/25 02:20:38;;;;;;;40.80;14.32;;;2.10;99.90;;;;;;20891718;28;20729;-77
2023/01/25 02:30:39;;;;;;;39.65;14.02;;;2.10;99.90;;;;;;20906761;28;20037;-76
2023/01/25 02:40:49;;;;;;;38.15;13.57;;;2.10;99.90;;;;;;20906174;28;20240;-76
2023/01/25 02:50:52;;;;;;;40.15;14.48;;;2.00;99.90;;;;;;20887163;28;20068;-76
2023/01/25 03:00:54;;;;;;;38.13;14.02;;;2.10;99.90;;;;;;20887792;28;20037;-76
2023/01/25 03:11:00;;;;;;;38.33;12.98;;;2.10;99.90;;;;;;20888058;28;20764;-77
2023/01/25 03:21:14;;;;;;;32.97;12.45;;;2.10;99.90;;;;;;20897418;28;20037;-77
2023/01/25 03:31:16;;;;;;;33.67;13.43;;;2.10;99.90;;;;;;20886549;28;20037;-76
2023/01/25 03:41:18;;;;;;;32.20;13.13;;;2.00;99.90;;;;;;20884745;28;20259;-76
2023/01/25 03:51:20;;;;;;;31.85;13.35;;;2.00;99.90;;;;;;20885826;28;20401;-76
2023/01/25 04:01:22;;;;;;;35.10;13.02;;;2.10;99.90;;;;;;20886218;28;20127;-76
2023/01/25 04:11:23;;;;;;;36.03;13.63;;;2.00;99.90;;;;;;20899385;28;20120;-76
2023/01/25 04:21:24;;;;;;;35.00;11.52;;;2.00;99.90;;;;;;20899130;28;20043;-76
2023/01/25 04:31:25;;;;;;;31.02;12.70;;;2.00;99.90;;;;;;20917248;28;20036;-75
2023/01/25 04:41:28;;;;;;;35.22;13.25;;;2.00;99.90;;;;;;20899392;28;20042;-76
2023/01/25 04:51:29;;;;;;;28.90;12.00;;;2.00;99.90;;;;;;20898920;28;20028;-75
2023/01/25 05:01:32;;;;;;;34.35;13.00;;;2.10;99.90;;;;;;20896589;28;20052;-77
2023/01/25 05:11:34;;;;;;;33.33;12.40;;;2.10;99.90;;;;;;20896731;28;20037;-75
2023/01/25 05:21:57;;;;;;;30.20;12.35;;;2.10;99.90;;;;;;20894313;28;20143;-76
2023/01/25 05:31:59;;;;;;;25.23;11.27;;;2.10;99.90;;;;;;20906474;28;20507;-76
2023/01/25 05:42:00;;;;;;;28.42;11.65;;;2.10;99.90;;;;;;20905529;28;20115;-77
2023/01/25 05:52:01;;;;;;;31.13;10.45;;;2.00;99.90;;;;;;20899059;28;20487;-75
2023/01/25 06:02:02;;;;;;;27.00;11.15;;;2.00;99.90;;;;;;20895965;28;20561;-75
2023/01/25 06:12:05;;;;;;;25.67;10.68;;;2.00;99.90;;;;;;20892180;28;20433;-76
2023/01/25 06:22:08;;;;;;;34.55;12.75;;;2.10;99.90;;;;;;20892436;28;20511;-76
2023/01/25 06:32:08;;;;;;;36.38;15.25;;;2.00;99.90;;;;;;20909360;28;20096;-76
2023/01/25 06:42:09;;;;;;;29.83;12.45;;;2.00;99.90;;;;;;20909533;28;20431;-77
2023/01/25 06:52:10;;;;;;;28.60;10.20;;;2.00;99.90;;;;;;20909742;28;20033;-76
2023/01/25 07:02:14;;;;;;;26.52;10.95;;;2.00;99.90;;;;;;20910724;28;20071;-77
2023/01/25 07:12:15;;;;;;;34.33;12.43;;;2.00;99.90;;;;;;20907783;28;20037;-77
2023/01/25 07:22:16;;;;;;;26.38;9.23;;;2.00;99.90;;;;;;20908022;28;20589;-77
2023/01/25 07:32:17;;;;;;;30.33;10.35;;;1.90;99.90;;;;;;20907966;28;20041;-75
2023/01/25 07:42:18;;;;;;;25.38;9.45;;;1.90;99.90;;;;;;20921951;28;20096;-76
2023/01/25 07:52:26;;;;;;;24.15;10.35;;;2.00;99.90;;;;;;20906313;28;20555;-77
2023/01/25 08:02:27;;;;;;;29.40;10.45;;;2.10;99.90;;;;;;20924392;28;20093;-76
2023/01/25 08:12:27;;;;;;;26.15;10.85;;;2.00;99.90;;;;;;20931120;28;20101;-75
2023/01/25 08:22:28;;;;;;;36.03;12.48;;;2.00;99.90;;;;;;20921189;28;20048;-76
2023/01/25 08:32:29;;;;;;;26.40;10.38;;;2.00;99.90;;;;;;20929674;28;20044;-77
2023/01/25 08:42:30;;;;;;;31.77;10.73;;;2.00;99.90;;;;;;20920336;28;20033;-77
2023/01/25 08:52:31;;;;;;;30.17;13.27;;;2.10;99.90;;;;;;20922779;28;20496;-77
2023/01/25 09:02:31;;;;;;;28.08;11.25;;;2.10;99.90;;;;;;20927477;28;20033;-77
2023/01/25 09:12:32;;;;;;;29.80;12.60;;;2.20;99.90;;;;;;20925812;28;20059;-76
2023/01/25 09:22:33;;;;;;;28.25;14.02;;;2.20;99.90;;;;;;20924101;28;20074;-77
2023/01/25 09:32:34;;;;;;;32.05;11.68;;;2.20;99.90;;;;;;20929533;28;20500;-77
2023/01/25 09:42:58;;;;;;;36.60;10.10;;;2.20;99.90;;;;;;20925823;28;20028;-77
2023/01/25 09:53:18;;;;;;;30.60;10.82;;;2.20;99.90;;;;;;20921076;28;20037;-77
2023/01/25 10:03:37;;;;;;;25.40;9.57;;;2.20;99.90;;;;;;20914149;28;20095;-77
2023/01/25 10:13:38;;;;;;;30.02;10.65;;;2.20;99.90;;;;;;20898869;28;20107;-77
2023/01/25 10:24:16;;;;;;;37.22;13.95;;;2.20;99.90;;;;;;20931748;28;20475;-77
2023/01/25 10:34:31;;;;;;;28.13;10.52;;;2.40;99.90;;;;;;20937551;28;20047;-75
2023/01/25 10:44:33;;;;;;;33.13;12.20;;;2.30;99.90;;;;;;20908156;28;20090;-76
2023/01/25 10:54:34;;;;;;;26.00;9.38;;;2.40;99.90;;;;;;20915184;28;20412;-77
2023/01/25 11:04:35;;;;;;;20.60;8.63;;;2.40;99.90;;;;;;20910882;28;20048;-77
2023/01/25 11:14:36;;;;;;;21.27;8.60;;;2.60;99.90;;;;;;20914243;28;20037;-77
2023/01/25 11:24:37;;;;;;;20.58;8.02;;;2.60;99.90;;;;;;20929896;28;20396;-78
2023/01/25 11:34:38;;;;;;;18.77;8.00;;;2.80;99.90;;;;;;20928328;28;20037;-78
2023/01/25 11:44:58;;;;;;;20.90;7.60;;;2.90;99.90;;;;;;20918719;28;20119;-78
2023/01/25 11:55:25;;;;;;;17.02;7.18;;;3.00;99.90;;;;;;20922695;28;20522;-77
2023/01/25 12:05:42;;;;;;;16.67;6.40;;;2.90;99.90;;;;;;20893846;28;20407;-77
2023/01/25 12:16:11;;;;;;;12.02;5.25;;;3.00;99.90;;;;;;20889875;28;20102;-77
2023/01/25 12:26:21;;;;;;;13.55;6.22;;;2.90;99.90;;;;;;20921418;28;20037;-77
2023/01/25 12:36:41;;;;;;;31.45;10.40;;;3.00;99.90;;;;;;20932007;28;20041;-77
2023/01/25 12:46:51;;;;;;;21.93;8.80;;;3.00;99.90;;;;;;20943682;28;20040;-78
2023/01/25 12:56:57;;;;;;;21.50;8.07;;;3.00;99.90;;;;;;20954986;28;20032;-78
2023/01/25 13:07:23;;;;;;;15.73;6.82;;;2.90;99.90;;;;;;20925708;28;20471;-77
2023/01/25 13:17:37;;;;;;;10.43;5.38;;;2.90;99.90;;;;;;20922782;28;20041;-78
2023/01/25 13:27:38;;;;;;;16.58;6.15;;;2.90;99.90;;;;;;20936882;28;20032;-78
2023/01/25 13:37:38;;;;;;;17.00;6.45;;;3.00;99.90;;;;;;20930100;28;20043;-77
2023/01/25 13:47:42;;;;;;;13.90;6.05;;;3.00;99.90;;;;;;20917482;28;20044;-79
2023/01/25 13:57:42;;;;;;;11.57;5.93;;;3.00;99.90;;;;;;20922463;28;20044;-78
2023/01/25 14:07:46;;;;;;;16.85;6.60;;;2.80;99.90;;;;;;20927671;28;20033;-77
2023/01/25 14:18:13;;;;;;;47.75;17.02;;;2.80;99.90;;;;;;20914777;28;20040;-77
2023/01/25 14:28:14;;;;;;;16.30;6.85;;;2.80;99.90;;;;;;20909222;28;20100;-77
2023/01/25 14:38:32;;;;;;;16.52;6.80;;;2.70;99.90;;;;;;20908038;28;20040;-77
2023/01/25 14:48:39;;;;;;;15.98;7.35;;;2.80;99.90;;;;;;20921626;28;20043;-77
2023/01/25 14:58:41;;;;;;;14.57;5.68;;;2.70;99.90;;;;;;20935109;28;20043;-76
2023/01/25 15:08:42;;;;;;;16.98;6.68;;;2.60;99.90;;;;;;20944022;28;20032;-79
2023/01/25 15:18:50;;;;;;;15.20;6.38;;;2.60;99.90;;;;;;20931262;28;20040;-78
2023/01/25 15:28:53;;;;;;;14.75;5.78;;;2.60;99.90;;;;;;20933712;28;20031;-77
2023/01/25 15:38:54;;;;;;;17.30;6.50;;;2.40;99.90;;;;;;20913477;28;20029;-77
2023/01/25 15:48:55;;;;;;;14.98;6.85;;;2.40;99.90;;;;;;20942849;28;20035;-78
2023/01/25 15:58:59;;;;;;;15.70;6.63;;;2.40;99.90;;;;;;20923232;28;20444;-77
2023/01/25 16:09:03;;;;;;;18.65;7.00;;;2.30;99.90;;;;;;20926835;28;20035;-77
2023/01/25 16:19:03;;;;;;;17.42;7.55;;;2.30;99.90;;;;;;20921804;28;20446;-76
2023/01/25 16:29:05;;;;;;;16.70;6.75;;;2.30;99.90;;;;;;20925404;28;20037;-77
2023/01/25 16:39:31;;;;;;;19.83;7.75;;;2.20;99.90;;;;;;20933185;28;20476;-77
2023/01/25 16:49:32;;;;;;;23.58;8.82;;;2.20;99.90;;;;;;20946718;28;20045;-76
2023/01/25 16:59:33;;;;;;;24.30;9.98;;;2.20;99.90;;;;;;20954599;28;20066;-77
2023/01/25 17:09:34;;;;;;;20.42;8.63;;;2.10;99.90;;;;;;20951873;28;20024;-76
2023/01/25 17:19:35;;;;;;;12.98;5.28;;;2.10;99.90;;;;;;20949402;28;20020;-77
2023/01/25 17:29:35;;;;;;;18.17;7.05;;;2.10;99.90;;;;;;20954823;28;20029;-77
2023/01/25 17:39:36;;;;;;;19.13;6.55;;;2.10;99.90;;;;;;20946759;28;20086;-76
2023/01/25 17:49:37;;;;;;;16.83;6.75;;;1.90;99.90;;;;;;20950446;28;20540;-77
2023/01/25 17:59:38;;;;;;;16.52;6.18;;;1.90;99.90;;;;;;20928942;28;20503;-76
2023/01/25 18:09:38;;;;;;;13.95;6.18;;;1.80;99.90;;;;;;20938054;28;20048;-77
2023/01/25 18:19:43;;;;;;;17.20;6.40;;;1.70;99.90;;;;;;20945903;28;20040;-77
2023/01/25 18:29:46;;;;;;;15.00;6.68;;;1.70;99.90;;;;;;20940844;28;20047;-77
2023/01/25 18:39:49;;;;;;;18.58;6.88;;;1.70;99.90;;;;;;20943796;28;20057;-77
2023/01/25 18:49:51;;;;;;;19.17;7.22;;;1.70;99.90;;;;;;20922288;28;20028;-77
2023/01/25 18:59:53;;;;;;;13.45;6.32;;;1.60;99.90;;;;;;20942367;28;20064;-76
2023/01/25 19:09:54;;;;;;;17.42;6.88;;;1.60;99.90;;;;;;20926569;28;20116;-76
2023/01/25 19:19:54;;;;;;;13.20;6.55;;;1.60;99.90;;;;;;20933025;28;20463;-77
2023/01/25 19:29:55;;;;;;;19.65;7.80;;;1.60;99.90;;;;;;20939386;28;20399;-76
2023/01/25 19:39:56;;;;;;;27.80;8.18;;;1.50;99.90;;;;;;20952354;28;20142;-77
2023/01/25 19:49:57;;;;;;;18.30;7.70;;;1.50;99.90;;;;;;20952826;28;20046;-76
2023/01/25 19:59:58;;;;;;;18.08;7.65;;;1.50;99.90;;;;;;20947699;28;20514;-77
2023/01/25 20:09:59;;;;;;;20.13;7.63;;;1.60;99.90;;;;;;20950843;28;20108;-77
2023/01/25 20:20:00;;;;;;;17.80;7.30;;;1.60;99.90;;;;;;20956720;28;20657;-77
2023/01/25 20:30:01;;;;;;;18.00;7.50;;;1.60;99.90;;;;;;20954321;28;20077;-76
2023/01/25 20:40:01;;;;;;;17.55;7.15;;;1.60;99.90;;;;;;20944682;28;20037;-78
2023/01/25 20:50:02;;;;;;;18.58;7.43;;;1.60;99.90;;;;;;20937794;28;20078;-76
2023/01/25 21:00:04;;;;;;;18.05;7.90;;;1.50;99.90;;;;;;21004753;28;20040;-76
2023/01/25 21:10:05;;;;;;;25.33;8.48;;;1.50;99.90;;;;;;21019289;28;20025;-77
2023/01/25 21:20:07;;;;;;;22.77;8.40;;;1.50;99.90;;;;;;21003639;28;20024;-77
2023/01/25 21:30:09;;;;;;;19.45;7.45;;;1.60;99.90;;;;;;21001364;28;20044;-77
2023/01/25 21:40:10;;;;;;;18.75;7.88;;;1.50;99.90;;;;;;20981867;28;20552;-76
2023/01/25 22:00:30;;;;;;;15.43;7.13;;;1.70;99.90;;;;;;20913891;28;20036;-77
2023/01/25 22:10:31;;;;;;;18.38;6.95;;;1.60;99.90;;;;;;20912938;28;20040;-76
2023/01/25 22:20:32;;;;;;;18.80;7.28;;;1.40;99.90;;;;;;20914647;28;20029;-77
2023/01/25 22:30:33;;;;;;;16.02;7.18;;;1.30;99.90;;;;;;20988210;28;20051;-77
2023/01/25 22:40:33;;;;;;;13.40;6.95;;;1.50;99.90;;;;;;20996473;28;20032;-77
2023/01/25 22:50:34;;;;;;;18.60;7.18;;;1.50;99.90;;;;;;20997179;28;20033;-76
2023/01/25 23:00:36;;;;;;;16.45;6.88;;;1.50;99.90;;;;;;20996766;28;20108;-77
2023/01/25 23:10:37;;;;;;;18.85;6.82;;;1.30;99.90;;;;;;20992413;28;20052;-77
2023/01/25 23:20:38;;;;;;;20.02;7.35;;;1.40;99.90;;;;;;20992963;28;20055;-77
2023/01/25 23:30:39;;;;;;;17.90;7.20;;;1.40;99.90;;;;;;20912327;28;20029;-77
2023/01/25 23:40:41;;;;;;;17.20;6.28;;;1.40;99.90;;;;;;20908848;28;20113;-76
2023/01/25 23:50:41;;;;;;;19.58;8.68;;;1.40;99.90;;;;;;20907375;28;20048;-77
